sensor_id;sensor_type;location;lat;lon;timestamp;P1;durP1;ratioP1;P2;durP2;ratioP2
75061;SDS011;63641;46.526;24.612;2024-01-30T00:02:25;10.98;;;8.15;;
75061;SDS011;63641;46.526;24.612;2024-01-30T00:04:52;11.05;;;8.52;;
75061;SDS011;63641;46.526;24.612;2024-01-30T00:07:19;13.77;;;9.25;;
75061;SDS011;63641;46.526;24.612;2024-01-30T00:09:46;15.52;;;10.30;;
75061;SDS011;63641;46.526;24.612;2024-01-30T00:12:16;11.65;;;8.82;;
75061;SDS011;63641;46.526;24.612;2024-01-30T00:14:43;14.02;;;10.18;;
75061;SDS011;63641;46.526;24.612;2024-01-30T00:17:10;18.73;;;12.05;;
75061;SDS011;63641;46.526;24.612;2024-01-30T00:19:36;19.10;;;11.73;;
75061;SDS011;63641;46.526;24.612;2024-01-30T00:22:03;19.48;;;11.13;;
75061;SDS011;63641;46.526;24.612;2024-01-30T00:24:30;20.58;;;13.55;;
75061;SDS011;63641;46.526;24.612;2024-01-30T00:26:57;20.70;;;14.02;;
75061;SDS011;63641;46.526;24.612;2024-01-30T00:29:24;30.50;;;19.52;;
75061;SDS011;63641;46.526;24.612;2024-01-30T00:31:52;33.60;;;20.92;;
75061;SDS011;63641;46.526;24.612;2024-01-30T00:34:19;23.63;;;15.40;;
75061;SDS011;63641;46.526;24.612;2024-01-30T00:36:45;18.73;;;12.25;;
75061;SDS011;63641;46.526;24.612;2024-01-30T00:39:12;24.23;;;15.82;;
75061;SDS011;63641;46.526;24.612;2024-01-30T00:41:41;23.42;;;15.43;;
75061;SDS011;63641;46.526;24.612;2024-01-30T00:44:08;15.32;;;11.32;;
75061;SDS011;63641;46.526;24.612;2024-01-30T00:46:35;16.98;;;12.32;;
75061;SDS011;63641;46.526;24.612;2024-01-30T00:49:02;13.02;;;9.52;;
75061;SDS011;63641;46.526;24.612;2024-01-30T00:51:29;11.20;;;7.90;;
75061;SDS011;63641;46.526;24.612;2024-01-30T00:53:56;14.05;;;9.98;;
75061;SDS011;63641;46.526;24.612;2024-01-30T00:56:22;16.77;;;10.00;;
75061;SDS011;63641;46.526;24.612;2024-01-30T00:58:50;11.20;;;9.07;;
75061;SDS011;63641;46.526;24.612;2024-01-30T01:01:17;11.55;;;8.27;;
75061;SDS011;63641;46.526;24.612;2024-01-30T01:03:44;10.77;;;7.25;;
75061;SDS011;63641;46.526;24.612;2024-01-30T01:06:11;11.50;;;8.65;;
75061;SDS011;63641;46.526;24.612;2024-01-30T01:08:38;11.07;;;8.77;;
75061;SDS011;63641;46.526;24.612;2024-01-30T01:11:05;13.63;;;8.82;;
75061;SDS011;63641;46.526;24.612;2024-01-30T01:13:31;9.13;;;7.53;;
75061;SDS011;63641;46.526;24.612;2024-01-30T01:15:58;10.65;;;8.63;;
75061;SDS011;63641;46.526;24.612;2024-01-30T01:18:25;9.25;;;8.27;;
75061;SDS011;63641;46.526;24.612;2024-01-30T01:20:53;10.88;;;8.13;;
75061;SDS011;63641;46.526;24.612;2024-01-30T01:23:20;11.35;;;8.48;;
75061;SDS011;63641;46.526;24.612;2024-01-30T01:25:47;11.00;;;7.97;;
75061;SDS011;63641;46.526;24.612;2024-01-30T01:28:13;11.43;;;8.82;;
75061;SDS011;63641;46.526;24.612;2024-01-30T01:30:40;9.35;;;8.15;;
75061;SDS011;63641;46.526;24.612;2024-01-30T01:33:08;11.45;;;8.20;;
75061;SDS011;63641;46.526;24.612;2024-01-30T01:35:35;11.68;;;7.82;;
75061;SDS011;63641;46.526;24.612;2024-01-30T01:38:02;9.23;;;7.45;;
75061;SDS011;63641;46.526;24.612;2024-01-30T01:40:29;11.10;;;7.88;;
75061;SDS011;63641;46.526;24.612;2024-01-30T01:42:56;11.75;;;8.85;;
75061;SDS011;63641;46.526;24.612;2024-01-30T01:45:23;13.98;;;9.25;;
75061;SDS011;63641;46.526;24.612;2024-01-30T01:47:50;11.27;;;8.85;;
75061;SDS011;63641;46.526;24.612;2024-01-30T01:50:18;12.57;;;8.77;;
75061;SDS011;63641;46.526;24.612;2024-01-30T01:52:48;14.82;;;8.95;;
75061;SDS011;63641;46.526;24.612;2024-01-30T01:55:15;15.40;;;10.52;;
75061;SDS011;63641;46.526;24.612;2024-01-30T01:57:43;13.75;;;9.52;;
75061;SDS011;63641;46.526;24.612;2024-01-30T02:00:11;13.02;;;8.73;;
75061;SDS011;63641;46.526;24.612;2024-01-30T02:02:39;10.70;;;8.48;;
75061;SDS011;63641;46.526;24.612;2024-01-30T02:05:06;10.63;;;8.18;;
75061;SDS011;63641;46.526;24.612;2024-01-30T02:07:33;10.75;;;8.38;;
75061;SDS011;63641;46.526;24.612;2024-01-30T02:10:00;9.90;;;7.72;;
75061;SDS011;63641;46.526;24.612;2024-01-30T02:12:26;9.30;;;8.02;;
75061;SDS011;63641;46.526;24.612;2024-01-30T02:14:53;8.70;;;7.47;;
75061;SDS011;63641;46.526;24.612;2024-01-30T02:17:21;7.75;;;6.63;;
75061;SDS011;63641;46.526;24.612;2024-01-30T02:19:49;9.05;;;7.10;;
75061;SDS011;63641;46.526;24.612;2024-01-30T02:22:16;7.90;;;6.97;;
75061;SDS011;63641;46.526;24.612;2024-01-30T02:24:44;9.90;;;7.05;;
75061;SDS011;63641;46.526;24.612;2024-01-30T02:27:11;8.77;;;7.47;;
75061;SDS011;63641;46.526;24.612;2024-01-30T02:29:38;8.75;;;6.90;;
75061;SDS011;63641;46.526;24.612;2024-01-30T02:32:04;8.57;;;7.40;;
75061;SDS011;63641;46.526;24.612;2024-01-30T02:34:32;8.35;;;6.65;;
75061;SDS011;63641;46.526;24.612;2024-01-30T02:36:59;9.20;;;7.13;;
75061;SDS011;63641;46.526;24.612;2024-01-30T02:39:26;10.55;;;6.90;;
75061;SDS011;63641;46.526;24.612;2024-01-30T02:41:53;8.57;;;6.75;;
75061;SDS011;63641;46.526;24.612;2024-01-30T02:44:21;10.07;;;7.38;;
75061;SDS011;63641;46.526;24.612;2024-01-30T02:46:47;7.82;;;6.95;;
75061;SDS011;63641;46.526;24.612;2024-01-30T02:49:14;10.63;;;7.65;;
75061;SDS011;63641;46.526;24.612;2024-01-30T02:51:41;9.02;;;6.75;;
75061;SDS011;63641;46.526;24.612;2024-01-30T02:54:08;8.77;;;7.13;;
75061;SDS011;63641;46.526;24.612;2024-01-30T02:56:34;8.05;;;6.93;;
75061;SDS011;63641;46.526;24.612;2024-01-30T02:59:01;8.27;;;6.45;;
75061;SDS011;63641;46.526;24.612;2024-01-30T03:01:28;9.23;;;6.50;;
75061;SDS011;63641;46.526;24.612;2024-01-30T03:03:55;9.68;;;7.95;;
75061;SDS011;63641;46.526;24.612;2024-01-30T03:06:22;10.18;;;8.18;;
75061;SDS011;63641;46.526;24.612;2024-01-30T03:08:49;9.30;;;7.57;;
75061;SDS011;63641;46.526;24.612;2024-01-30T03:11:16;14.10;;;8.27;;
75061;SDS011;63641;46.526;24.612;2024-01-30T03:13:43;10.52;;;7.10;;
75061;SDS011;63641;46.526;24.612;2024-01-30T03:16:09;12.30;;;8.02;;
75061;SDS011;63641;46.526;24.612;2024-01-30T03:18:36;9.13;;;7.95;;
75061;SDS011;63641;46.526;24.612;2024-01-30T03:21:03;9.23;;;7.40;;
75061;SDS011;63641;46.526;24.612;2024-01-30T03:23:30;9.98;;;8.02;;
75061;SDS011;63641;46.526;24.612;2024-01-30T03:25:58;8.38;;;7.30;;
75061;SDS011;63641;46.526;24.612;2024-01-30T03:28:25;8.93;;;8.00;;
75061;SDS011;63641;46.526;24.612;2024-01-30T03:30:52;12.68;;;7.70;;
75061;SDS011;63641;46.526;24.612;2024-01-30T03:33:19;8.48;;;7.43;;
75061;SDS011;63641;46.526;24.612;2024-01-30T03:35:45;11.68;;;8.15;;
75061;SDS011;63641;46.526;24.612;2024-01-30T03:38:12;12.95;;;8.75;;
75061;SDS011;63641;46.526;24.612;2024-01-30T03:40:39;11.98;;;8.85;;
75061;SDS011;63641;46.526;24.612;2024-01-30T03:43:05;9.75;;;7.53;;
75061;SDS011;63641;46.526;24.612;2024-01-30T03:45:32;11.15;;;8.23;;
75061;SDS011;63641;46.526;24.612;2024-01-30T03:47:59;12.15;;;9.32;;
75061;SDS011;63641;46.526;24.612;2024-01-30T03:50:26;11.65;;;8.20;;
75061;SDS011;63641;46.526;24.612;2024-01-30T03:52:54;11.60;;;8.20;;
75061;SDS011;63641;46.526;24.612;2024-01-30T03:55:21;10.30;;;8.30;;
75061;SDS011;63641;46.526;24.612;2024-01-30T03:57:47;12.23;;;9.68;;
75061;SDS011;63641;46.526;24.612;2024-01-30T04:00:14;13.07;;;8.15;;
75061;SDS011;63641;46.526;24.612;2024-01-30T04:02:41;10.13;;;8.13;;
75061;SDS011;63641;46.526;24.612;2024-01-30T04:05:09;14.30;;;9.13;;
75061;SDS011;63641;46.526;24.612;2024-01-30T04:07:36;11.20;;;8.95;;
75061;SDS011;63641;46.526;24.612;2024-01-30T04:10:02;12.52;;;9.40;;
75061;SDS011;63641;46.526;24.612;2024-01-30T04:12:32;13.93;;;9.55;;
75061;SDS011;63641;46.526;24.612;2024-01-30T04:14:58;11.75;;;9.65;;
75061;SDS011;63641;46.526;24.612;2024-01-30T04:17:25;14.23;;;9.23;;
75061;SDS011;63641;46.526;24.612;2024-01-30T04:19:52;11.05;;;8.90;;
75061;SDS011;63641;46.526;24.612;2024-01-30T04:22:19;12.35;;;9.95;;
75061;SDS011;63641;46.526;24.612;2024-01-30T04:24:46;12.27;;;9.00;;
75061;SDS011;63641;46.526;24.612;2024-01-30T04:27:13;12.18;;;7.95;;
75061;SDS011;63641;46.526;24.612;2024-01-30T04:29:39;11.55;;;9.40;;
75061;SDS011;63641;46.526;24.612;2024-01-30T04:32:06;12.25;;;9.07;;
75061;SDS011;63641;46.526;24.612;2024-01-30T04:34:33;12.07;;;8.90;;
75061;SDS011;63641;46.526;24.612;2024-01-30T04:37:00;14.70;;;9.38;;
75061;SDS011;63641;46.526;24.612;2024-01-30T04:39:26;10.38;;;7.88;;
75061;SDS011;63641;46.526;24.612;2024-01-30T04:41:53;12.15;;;9.10;;
75061;SDS011;63641;46.526;24.612;2024-01-30T04:44:20;13.07;;;8.75;;
75061;SDS011;63641;46.526;24.612;2024-01-30T04:46:47;9.63;;;7.82;;
75061;SDS011;63641;46.526;24.612;2024-01-30T04:49:14;10.48;;;8.05;;
75061;SDS011;63641;46.526;24.612;2024-01-30T04:51:40;12.25;;;8.45;;
75061;SDS011;63641;46.526;24.612;2024-01-30T04:54:07;9.52;;;7.47;;
75061;SDS011;63641;46.526;24.612;2024-01-30T04:56:34;9.38;;;8.38;;
75061;SDS011;63641;46.526;24.612;2024-01-30T04:59:02;9.40;;;7.28;;
75061;SDS011;63641;46.526;24.612;2024-01-30T05:01:29;8.32;;;7.30;;
75061;SDS011;63641;46.526;24.612;2024-01-30T05:03:56;9.85;;;7.63;;
75061;SDS011;63641;46.526;24.612;2024-01-30T05:06:23;10.38;;;7.15;;
75061;SDS011;63641;46.526;24.612;2024-01-30T05:08:51;8.98;;;7.72;;
75061;SDS011;63641;46.526;24.612;2024-01-30T05:11:18;9.18;;;8.07;;
75061;SDS011;63641;46.526;24.612;2024-01-30T05:13:45;9.70;;;7.78;;
75061;SDS011;63641;46.526;24.612;2024-01-30T05:16:12;11.88;;;9.25;;
75061;SDS011;63641;46.526;24.612;2024-01-30T05:18:39;11.82;;;8.25;;
75061;SDS011;63641;46.526;24.612;2024-01-30T05:21:06;15.77;;;9.85;;
75061;SDS011;63641;46.526;24.612;2024-01-30T05:23:33;16.30;;;10.88;;
75061;SDS011;63641;46.526;24.612;2024-01-30T05:26:00;13.63;;;10.20;;
75061;SDS011;63641;46.526;24.612;2024-01-30T05:28:28;16.15;;;10.73;;
75061;SDS011;63641;46.526;24.612;2024-01-30T05:30:56;14.50;;;9.57;;
75061;SDS011;63641;46.526;24.612;2024-01-30T05:33:23;14.90;;;9.75;;
75061;SDS011;63641;46.526;24.612;2024-01-30T05:35:50;17.05;;;11.90;;
75061;SDS011;63641;46.526;24.612;2024-01-30T05:38:16;11.27;;;9.57;;
75061;SDS011;63641;46.526;24.612;2024-01-30T05:40:43;10.48;;;9.15;;
75061;SDS011;63641;46.526;24.612;2024-01-30T05:43:10;12.85;;;9.43;;
75061;SDS011;63641;46.526;24.612;2024-01-30T05:45:37;10.38;;;8.32;;
75061;SDS011;63641;46.526;24.612;2024-01-30T05:48:04;11.43;;;8.80;;
75061;SDS011;63641;46.526;24.612;2024-01-30T05:50:31;10.32;;;8.32;;
75061;SDS011;63641;46.526;24.612;2024-01-30T05:52:58;10.63;;;7.65;;
75061;SDS011;63641;46.526;24.612;2024-01-30T05:55:24;9.00;;;7.40;;
75061;SDS011;63641;46.526;24.612;2024-01-30T05:57:51;10.70;;;8.68;;
75061;SDS011;63641;46.526;24.612;2024-01-30T06:00:19;10.93;;;7.93;;
75061;SDS011;63641;46.526;24.612;2024-01-30T06:02:45;9.40;;;8.48;;
75061;SDS011;63641;46.526;24.612;2024-01-30T06:05:12;9.20;;;8.10;;
75061;SDS011;63641;46.526;24.612;2024-01-30T06:07:39;10.15;;;7.72;;
75061;SDS011;63641;46.526;24.612;2024-01-30T06:10:06;11.05;;;7.00;;
75061;SDS011;63641;46.526;24.612;2024-01-30T06:12:35;10.90;;;7.35;;
75061;SDS011;63641;46.526;24.612;2024-01-30T06:15:02;9.88;;;7.65;;
75061;SDS011;63641;46.526;24.612;2024-01-30T06:17:29;11.52;;;7.13;;
75061;SDS011;63641;46.526;24.612;2024-01-30T06:19:56;12.65;;;7.50;;
75061;SDS011;63641;46.526;24.612;2024-01-30T06:22:23;14.35;;;7.82;;
75061;SDS011;63641;46.526;24.612;2024-01-30T06:24:50;9.88;;;7.55;;
75061;SDS011;63641;46.526;24.612;2024-01-30T06:27:17;9.35;;;7.35;;
75061;SDS011;63641;46.526;24.612;2024-01-30T06:29:44;11.10;;;9.30;;
75061;SDS011;63641;46.526;24.612;2024-01-30T06:32:10;11.98;;;9.70;;
75061;SDS011;63641;46.526;24.612;2024-01-30T06:34:37;16.05;;;11.18;;
75061;SDS011;63641;46.526;24.612;2024-01-30T06:37:06;14.80;;;11.18;;
75061;SDS011;63641;46.526;24.612;2024-01-30T06:39:33;17.17;;;12.35;;
75061;SDS011;63641;46.526;24.612;2024-01-30T06:41:59;12.02;;;9.55;;
75061;SDS011;63641;46.526;24.612;2024-01-30T06:44:26;12.43;;;9.32;;
75061;SDS011;63641;46.526;24.612;2024-01-30T06:46:55;10.32;;;9.05;;
75061;SDS011;63641;46.526;24.612;2024-01-30T06:49:22;11.93;;;8.93;;
75061;SDS011;63641;46.526;24.612;2024-01-30T06:51:49;17.40;;;10.10;;
75061;SDS011;63641;46.526;24.612;2024-01-30T06:54:16;12.45;;;9.65;;
75061;SDS011;63641;46.526;24.612;2024-01-30T06:56:42;11.35;;;9.15;;
75061;SDS011;63641;46.526;24.612;2024-01-30T06:59:09;14.10;;;11.40;;
75061;SDS011;63641;46.526;24.612;2024-01-30T07:01:36;19.65;;;13.35;;
75061;SDS011;63641;46.526;24.612;2024-01-30T07:04:03;18.23;;;13.40;;
75061;SDS011;63641;46.526;24.612;2024-01-30T07:06:29;31.77;;;19.67;;
75061;SDS011;63641;46.526;24.612;2024-01-30T07:08:57;34.30;;;21.98;;
75061;SDS011;63641;46.526;24.612;2024-01-30T07:11:23;27.60;;;17.75;;
75061;SDS011;63641;46.526;24.612;2024-01-30T07:13:51;31.40;;;20.08;;
75061;SDS011;63641;46.526;24.612;2024-01-30T07:16:17;31.42;;;21.65;;
75061;SDS011;63641;46.526;24.612;2024-01-30T07:18:44;27.15;;;18.52;;
75061;SDS011;63641;46.526;24.612;2024-01-30T07:21:12;31.77;;;20.73;;
75061;SDS011;63641;46.526;24.612;2024-01-30T07:23:38;38.30;;;24.88;;
75061;SDS011;63641;46.526;24.612;2024-01-30T07:26:05;37.08;;;25.55;;
75061;SDS011;63641;46.526;24.612;2024-01-30T07:28:33;37.45;;;25.52;;
75061;SDS011;63641;46.526;24.612;2024-01-30T07:31:00;35.33;;;23.52;;
75061;SDS011;63641;46.526;24.612;2024-01-30T07:33:28;40.45;;;24.98;;
75061;SDS011;63641;46.526;24.612;2024-01-30T07:35:55;36.50;;;23.77;;
75061;SDS011;63641;46.526;24.612;2024-01-30T07:38:22;32.97;;;21.95;;
75061;SDS011;63641;46.526;24.612;2024-01-30T07:40:49;35.60;;;21.67;;
75061;SDS011;63641;46.526;24.612;2024-01-30T07:43:16;30.25;;;20.17;;
75061;SDS011;63641;46.526;24.612;2024-01-30T07:45:42;40.13;;;27.77;;
75061;SDS011;63641;46.526;24.612;2024-01-30T07:48:09;41.53;;;25.30;;
75061;SDS011;63641;46.526;24.612;2024-01-30T07:50:36;37.78;;;25.77;;
75061;SDS011;63641;46.526;24.612;2024-01-30T07:53:03;38.42;;;26.92;;
75061;SDS011;63641;46.526;24.612;2024-01-30T07:55:30;42.97;;;26.13;;
75061;SDS011;63641;46.526;24.612;2024-01-30T07:57:58;34.88;;;24.40;;
75061;SDS011;63641;46.526;24.612;2024-01-30T08:00:25;32.97;;;22.73;;
75061;SDS011;63641;46.526;24.612;2024-01-30T08:02:52;35.63;;;24.35;;
75061;SDS011;63641;46.526;24.612;2024-01-30T08:05:22;36.58;;;25.80;;
75061;SDS011;63641;46.526;24.612;2024-01-30T08:07:50;32.88;;;23.95;;
75061;SDS011;63641;46.526;24.612;2024-01-30T08:10:17;30.15;;;21.85;;
75061;SDS011;63641;46.526;24.612;2024-01-30T08:12:47;27.30;;;20.17;;
75061;SDS011;63641;46.526;24.612;2024-01-30T08:15:13;25.88;;;16.90;;
75061;SDS011;63641;46.526;24.612;2024-01-30T08:17:40;21.25;;;14.98;;
75061;SDS011;63641;46.526;24.612;2024-01-30T08:20:07;21.77;;;16.27;;
75061;SDS011;63641;46.526;24.612;2024-01-30T08:22:40;22.52;;;16.65;;
75061;SDS011;63641;46.526;24.612;2024-01-30T08:25:07;18.40;;;13.05;;
75061;SDS011;63641;46.526;24.612;2024-01-30T08:27:35;22.90;;;17.48;;
75061;SDS011;63641;46.526;24.612;2024-01-30T08:30:08;16.23;;;12.82;;
75061;SDS011;63641;46.526;24.612;2024-01-30T08:32:35;19.95;;;14.15;;
75061;SDS011;63641;46.526;24.612;2024-01-30T08:35:02;19.35;;;13.77;;
75061;SDS011;63641;46.526;24.612;2024-01-30T08:37:30;18.35;;;13.23;;
75061;SDS011;63641;46.526;24.612;2024-01-30T08:39:57;17.40;;;12.93;;
75061;SDS011;63641;46.526;24.612;2024-01-30T08:42:24;21.20;;;13.93;;
75061;SDS011;63641;46.526;24.612;2024-01-30T08:44:51;18.70;;;13.93;;
75061;SDS011;63641;46.526;24.612;2024-01-30T08:47:19;19.02;;;13.38;;
75061;SDS011;63641;46.526;24.612;2024-01-30T08:49:46;19.85;;;14.35;;
75061;SDS011;63641;46.526;24.612;2024-01-30T08:52:13;17.25;;;12.75;;
75061;SDS011;63641;46.526;24.612;2024-01-30T08:54:39;14.57;;;10.70;;
75061;SDS011;63641;46.526;24.612;2024-01-30T08:57:06;15.32;;;11.82;;
75061;SDS011;63641;46.526;24.612;2024-01-30T08:59:33;15.23;;;11.48;;
75061;SDS011;63641;46.526;24.612;2024-01-30T09:02:00;15.57;;;11.07;;
75061;SDS011;63641;46.526;24.612;2024-01-30T09:04:37;16.25;;;11.68;;
75061;SDS011;63641;46.526;24.612;2024-01-30T09:07:05;13.07;;;10.45;;
75061;SDS011;63641;46.526;24.612;2024-01-30T09:09:37;10.98;;;9.65;;
75061;SDS011;63641;46.526;24.612;2024-01-30T09:12:06;14.07;;;9.75;;
75061;SDS011;63641;46.526;24.612;2024-01-30T09:14:36;14.25;;;9.50;;
75061;SDS011;63641;46.526;24.612;2024-01-30T09:17:03;13.85;;;10.93;;
75061;SDS011;63641;46.526;24.612;2024-01-30T09:19:30;14.18;;;10.35;;
75061;SDS011;63641;46.526;24.612;2024-01-30T09:21:57;11.90;;;8.80;;
75061;SDS011;63641;46.526;24.612;2024-01-30T09:24:25;17.70;;;9.82;;
75061;SDS011;63641;46.526;24.612;2024-01-30T09:26:53;14.07;;;9.52;;
75061;SDS011;63641;46.526;24.612;2024-01-30T09:29:19;14.82;;;10.18;;
75061;SDS011;63641;46.526;24.612;2024-01-30T09:31:47;15.27;;;9.97;;
75061;SDS011;63641;46.526;24.612;2024-01-30T09:34:14;19.60;;;10.93;;
75061;SDS011;63641;46.526;24.612;2024-01-30T09:36:41;15.57;;;10.75;;
75061;SDS011;63641;46.526;24.612;2024-01-30T09:39:07;14.32;;;10.65;;
75061;SDS011;63641;46.526;24.612;2024-01-30T09:41:37;18.63;;;10.38;;
75061;SDS011;63641;46.526;24.612;2024-01-30T09:44:35;13.23;;;10.10;;
75061;SDS011;63641;46.526;24.612;2024-01-30T09:47:03;11.93;;;9.70;;
75061;SDS011;63641;46.526;24.612;2024-01-30T09:49:32;15.77;;;8.85;;
75061;SDS011;63641;46.526;24.612;2024-01-30T09:52:00;12.73;;;9.05;;
75061;SDS011;63641;46.526;24.612;2024-01-30T09:54:31;11.95;;;9.13;;
75061;SDS011;63641;46.526;24.612;2024-01-30T09:57:02;12.13;;;8.85;;
75061;SDS011;63641;46.526;24.612;2024-01-30T09:59:29;12.27;;;8.43;;
75061;SDS011;63641;46.526;24.612;2024-01-30T10:01:55;9.65;;;8.65;;
75061;SDS011;63641;46.526;24.612;2024-01-30T10:04:23;12.52;;;8.05;;
75061;SDS011;63641;46.526;24.612;2024-01-30T10:06:50;11.57;;;9.30;;
75061;SDS011;63641;46.526;24.612;2024-01-30T10:09:17;12.10;;;8.38;;
75061;SDS011;63641;46.526;24.612;2024-01-30T10:11:44;10.50;;;8.10;;
75061;SDS011;63641;46.526;24.612;2024-01-30T10:14:11;8.60;;;7.40;;
75061;SDS011;63641;46.526;24.612;2024-01-30T10:16:37;11.40;;;8.38;;
75061;SDS011;63641;46.526;24.612;2024-01-30T10:19:04;11.90;;;8.00;;
75061;SDS011;63641;46.526;24.612;2024-01-30T10:21:31;9.38;;;8.20;;
75061;SDS011;63641;46.526;24.612;2024-01-30T10:23:58;10.32;;;7.13;;
75061;SDS011;63641;46.526;24.612;2024-01-30T10:26:25;10.23;;;7.60;;
75061;SDS011;63641;46.526;24.612;2024-01-30T10:28:52;9.77;;;7.72;;
75061;SDS011;63641;46.526;24.612;2024-01-30T10:31:19;11.30;;;8.05;;
75061;SDS011;63641;46.526;24.612;2024-01-30T10:33:46;11.45;;;7.88;;
75061;SDS011;63641;46.526;24.612;2024-01-30T10:36:13;11.23;;;8.05;;
75061;SDS011;63641;46.526;24.612;2024-01-30T10:38:46;10.67;;;7.77;;
75061;SDS011;63641;46.526;24.612;2024-01-30T10:41:19;12.07;;;7.90;;
75061;SDS011;63641;46.526;24.612;2024-01-30T10:43:58;11.27;;;7.97;;
75061;SDS011;63641;46.526;24.612;2024-01-30T10:46:31;14.30;;;8.10;;
75061;SDS011;63641;46.526;24.612;2024-01-30T10:48:59;10.63;;;8.25;;
75061;SDS011;63641;46.526;24.612;2024-01-30T10:51:27;11.82;;;8.68;;
75061;SDS011;63641;46.526;24.612;2024-01-30T10:53:58;12.75;;;9.90;;
75061;SDS011;63641;46.526;24.612;2024-01-30T10:56:25;10.65;;;8.65;;
75061;SDS011;63641;46.526;24.612;2024-01-30T10:58:54;11.15;;;8.82;;
75061;SDS011;63641;46.526;24.612;2024-01-30T11:01:22;11.35;;;8.90;;
75061;SDS011;63641;46.526;24.612;2024-01-30T11:03:53;11.20;;;8.55;;
75061;SDS011;63641;46.526;24.612;2024-01-30T11:06:24;9.63;;;7.78;;
75061;SDS011;63641;46.526;24.612;2024-01-30T11:14:29;9.02;;;6.93;;
75061;SDS011;63641;46.526;24.612;2024-01-30T11:16:59;8.13;;;7.25;;
75061;SDS011;63641;46.526;24.612;2024-01-30T11:19:26;7.80;;;5.90;;
75061;SDS011;63641;46.526;24.612;2024-01-30T11:21:54;7.93;;;6.13;;
75061;SDS011;63641;46.526;24.612;2024-01-30T11:24:23;10.68;;;7.00;;
75061;SDS011;63641;46.526;24.612;2024-01-30T11:26:57;9.82;;;7.05;;
75061;SDS011;63641;46.526;24.612;2024-01-30T11:29:25;8.43;;;7.15;;
75061;SDS011;63641;46.526;24.612;2024-01-30T11:31:57;12.50;;;7.50;;
75061;SDS011;63641;46.526;24.612;2024-01-30T11:34:25;11.90;;;8.70;;
75061;SDS011;63641;46.526;24.612;2024-01-30T11:36:52;9.10;;;7.13;;
75061;SDS011;63641;46.526;24.612;2024-01-30T11:39:25;9.68;;;8.07;;
75061;SDS011;63641;46.526;24.612;2024-01-30T11:41:53;12.27;;;9.15;;
75061;SDS011;63641;46.526;24.612;2024-01-30T11:44:21;10.60;;;8.73;;
75061;SDS011;63641;46.526;24.612;2024-01-30T11:46:51;13.77;;;8.77;;
75061;SDS011;63641;46.526;24.612;2024-01-30T11:49:18;10.23;;;7.80;;
75061;SDS011;63641;46.526;24.612;2024-01-30T11:51:45;13.73;;;9.23;;
75061;SDS011;63641;46.526;24.612;2024-01-30T11:54:18;12.63;;;9.38;;
75061;SDS011;63641;46.526;24.612;2024-01-30T11:56:45;11.45;;;8.73;;
75061;SDS011;63641;46.526;24.612;2024-01-30T11:59:12;12.88;;;8.75;;
75061;SDS011;63641;46.526;24.612;2024-01-30T12:01:38;11.00;;;7.80;;
75061;SDS011;63641;46.526;24.612;2024-01-30T12:04:05;12.13;;;8.10;;
75061;SDS011;63641;46.526;24.612;2024-01-30T12:06:36;11.02;;;8.07;;
75061;SDS011;63641;46.526;24.612;2024-01-30T12:09:04;11.73;;;8.13;;
75061;SDS011;63641;46.526;24.612;2024-01-30T12:11:32;13.65;;;10.18;;
75061;SDS011;63641;46.526;24.612;2024-01-30T12:13:59;13.35;;;8.88;;
75061;SDS011;63641;46.526;24.612;2024-01-30T12:16:26;11.50;;;7.78;;
75061;SDS011;63641;46.526;24.612;2024-01-30T12:18:59;12.38;;;9.43;;
75061;SDS011;63641;46.526;24.612;2024-01-30T12:21:30;16.40;;;11.23;;
75061;SDS011;63641;46.526;24.612;2024-01-30T12:23:57;15.75;;;9.70;;
75061;SDS011;63641;46.526;24.612;2024-01-30T12:26:24;11.35;;;9.18;;
75061;SDS011;63641;46.526;24.612;2024-01-30T12:28:54;16.48;;;9.60;;
75061;SDS011;63641;46.526;24.612;2024-01-30T12:31:31;14.35;;;9.20;;
75061;SDS011;63641;46.526;24.612;2024-01-30T12:33:59;19.05;;;10.95;;
75061;SDS011;63641;46.526;24.612;2024-01-30T12:36:27;11.00;;;9.32;;
75061;SDS011;63641;46.526;24.612;2024-01-30T12:38:56;12.90;;;8.95;;
75061;SDS011;63641;46.526;24.612;2024-01-30T12:41:24;13.98;;;10.13;;
75061;SDS011;63641;46.526;24.612;2024-01-30T12:43:55;12.63;;;10.50;;
75061;SDS011;63641;46.526;24.612;2024-01-30T12:46:28;15.07;;;10.32;;
75061;SDS011;63641;46.526;24.612;2024-01-30T12:48:55;14.48;;;9.90;;
75061;SDS011;63641;46.526;24.612;2024-01-30T12:51:22;12.13;;;9.63;;
75061;SDS011;63641;46.526;24.612;2024-01-30T12:53:49;14.85;;;7.95;;
75061;SDS011;63641;46.526;24.612;2024-01-30T12:56:16;12.35;;;8.98;;
75061;SDS011;63641;46.526;24.612;2024-01-30T12:58:43;11.68;;;8.35;;
75061;SDS011;63641;46.526;24.612;2024-01-30T13:01:14;11.07;;;8.30;;
75061;SDS011;63641;46.526;24.612;2024-01-30T13:03:41;11.98;;;9.60;;
75061;SDS011;63641;46.526;24.612;2024-01-30T13:06:08;11.45;;;9.02;;
75061;SDS011;63641;46.526;24.612;2024-01-30T13:08:35;10.13;;;7.78;;
75061;SDS011;63641;46.526;24.612;2024-01-30T13:11:01;10.10;;;7.63;;
75061;SDS011;63641;46.526;24.612;2024-01-30T13:13:28;13.15;;;8.07;;
75061;SDS011;63641;46.526;24.612;2024-01-30T13:15:55;9.48;;;6.82;;
75061;SDS011;63641;46.526;24.612;2024-01-30T13:18:21;8.43;;;6.30;;
75061;SDS011;63641;46.526;24.612;2024-01-30T13:20:48;8.68;;;6.28;;
75061;SDS011;63641;46.526;24.612;2024-01-30T13:23:15;9.63;;;7.35;;
75061;SDS011;63641;46.526;24.612;2024-01-30T13:25:42;10.43;;;7.32;;
75061;SDS011;63641;46.526;24.612;2024-01-30T13:28:09;11.48;;;7.50;;
75061;SDS011;63641;46.526;24.612;2024-01-30T13:30:35;9.93;;;7.20;;
75061;SDS011;63641;46.526;24.612;2024-01-30T13:33:02;10.55;;;7.50;;
75061;SDS011;63641;46.526;24.612;2024-01-30T13:35:29;9.75;;;7.13;;
75061;SDS011;63641;46.526;24.612;2024-01-30T13:37:56;10.93;;;8.43;;
75061;SDS011;63641;46.526;24.612;2024-01-30T13:40:24;12.98;;;9.27;;
75061;SDS011;63641;46.526;24.612;2024-01-30T13:42:51;10.13;;;8.82;;
75061;SDS011;63641;46.526;24.612;2024-01-30T13:45:18;14.57;;;9.10;;
75061;SDS011;63641;46.526;24.612;2024-01-30T13:47:47;11.73;;;8.85;;
75061;SDS011;63641;46.526;24.612;2024-01-30T13:50:15;10.90;;;8.95;;
75061;SDS011;63641;46.526;24.612;2024-01-30T13:52:43;10.50;;;8.20;;
75061;SDS011;63641;46.526;24.612;2024-01-30T13:55:11;16.73;;;11.50;;
75061;SDS011;63641;46.526;24.612;2024-01-30T13:57:38;9.15;;;8.25;;
75061;SDS011;63641;46.526;24.612;2024-01-30T14:00:05;11.55;;;8.40;;
75061;SDS011;63641;46.526;24.612;2024-01-30T14:02:33;11.77;;;8.15;;
75061;SDS011;63641;46.526;24.612;2024-01-30T14:05:00;12.85;;;8.60;;
75061;SDS011;63641;46.526;24.612;2024-01-30T14:07:27;30.20;;;20.45;;
75061;SDS011;63641;46.526;24.612;2024-01-30T14:09:54;14.60;;;9.63;;
75061;SDS011;63641;46.526;24.612;2024-01-30T14:12:21;14.40;;;10.48;;
75061;SDS011;63641;46.526;24.612;2024-01-30T14:14:48;14.70;;;10.50;;
75061;SDS011;63641;46.526;24.612;2024-01-30T14:17:15;17.35;;;10.98;;
75061;SDS011;63641;46.526;24.612;2024-01-30T14:19:41;15.68;;;13.60;;
75061;SDS011;63641;46.526;24.612;2024-01-30T14:22:08;13.27;;;9.90;;
75061;SDS011;63641;46.526;24.612;2024-01-30T14:24:35;11.95;;;9.20;;
75061;SDS011;63641;46.526;24.612;2024-01-30T14:27:03;11.45;;;8.82;;
75061;SDS011;63641;46.526;24.612;2024-01-30T14:29:30;12.93;;;8.98;;